createdAt,value
2022-11-26T00:01:22.162Z,78.19
2022-11-26T00:03:52.407Z,78.13
2022-11-26T00:06:36.649Z,77.99
2022-11-26T00:09:08.521Z,77.86
2022-11-26T00:11:36.477Z,78.10
2022-11-26T00:14:12.251Z,78.06
2022-11-26T00:16:40.181Z,78.06
2022-11-26T00:19:08.109Z,78.16
2022-11-26T00:21:38.976Z,78.31
2022-11-26T00:24:33.453Z,78.21
2022-11-26T00:27:01.298Z,78.45
2022-11-26T00:29:29.245Z,78.63
2022-11-26T00:31:57.208Z,78.39
2022-11-26T00:34:25.213Z,78.33
2022-11-26T00:36:53.236Z,78.25
2022-11-26T00:39:23.976Z,78.25
2022-11-26T00:41:52.756Z,78.30
2022-11-26T00:44:23.457Z,78.68
2022-11-26T00:46:52.594Z,78.58
2022-11-26T00:49:21.763Z,78.52
2022-11-26T00:51:49.667Z,78.32
2022-11-26T00:54:19.293Z,78.29
2022-11-26T00:56:48.461Z,78.46
2022-11-26T00:59:20.541Z,78.76
2022-11-26T01:01:49.650Z,78.83
2022-11-26T01:04:17.596Z,78.58
2022-11-26T01:06:46.686Z,78.31
2022-11-26T01:09:20.440Z,78.06
2022-11-26T01:11:53.537Z,78.45
2022-11-26T01:14:23.407Z,79.40
2022-11-26T01:16:55.120Z,79.04
2022-11-26T01:19:23.066Z,78.92
2022-11-26T01:21:50.937Z,78.77
2022-11-26T01:24:18.962Z,78.80
2022-11-26T01:26:46.961Z,78.59
2022-11-26T01:29:17.180Z,78.41
2022-11-26T01:31:45.939Z,77.95
2022-11-26T01:34:14.658Z,77.92
2022-11-26T01:36:42.647Z,77.96
2022-11-26T01:39:15.026Z,78.12
2022-11-26T01:41:48.177Z,78.04
2022-11-26T01:44:25.193Z,77.67
2022-11-26T01:46:54.339Z,77.86
2022-11-26T01:49:24.600Z,77.44
2022-11-26T01:52:20.653Z,77.16
2022-11-26T01:54:49.304Z,77.26
2022-11-26T01:57:21.689Z,77.05
2022-11-26T01:59:55.093Z,76.84
2022-11-26T02:02:25.643Z,76.83
2022-11-26T02:05:00.580Z,76.82
2022-11-26T02:07:28.461Z,76.55
2022-11-26T02:09:56.305Z,76.45
2022-11-26T02:12:24.162Z,76.28
2022-11-26T02:14:52.097Z,76.37
2022-11-26T02:17:55.651Z,76.10
2022-11-26T02:20:34.781Z,76.15
2022-11-26T02:23:11.717Z,76.13
2022-11-26T02:25:58.156Z,76.11
2022-11-26T02:28:57.719Z,76.32
2022-11-26T02:31:25.558Z,76.19
2022-11-26T02:34:17.783Z,76.24
2022-11-26T02:36:57.033Z,76.16
2022-11-26T02:39:27.080Z,76.09
2022-11-26T02:41:57.965Z,76.16
2022-11-26T02:44:31.010Z,76.15
2022-11-26T02:47:06.973Z,76.31
2022-11-26T02:49:37.863Z,76.48
2022-11-26T02:52:07.982Z,76.62
2022-11-26T02:54:37.817Z,76.92
2022-11-26T02:57:09.535Z,77.06
2022-11-26T02:59:38.658Z,77.08
2022-11-26T03:02:26.689Z,77.21
2022-11-26T03:05:00.266Z,77.38
2022-11-26T03:07:31.014Z,77.41
2022-11-26T03:10:01.444Z,77.64
2022-11-26T03:12:29.726Z,77.72
2022-11-26T03:14:58.142Z,77.79
2022-11-26T03:17:26.051Z,78.03
2022-11-26T03:19:53.836Z,78.01
2022-11-26T03:22:21.746Z,78.10
2022-11-26T03:24:49.699Z,78.28
2022-11-26T03:27:17.526Z,78.30
2022-11-26T03:29:45.332Z,78.46
2022-11-26T03:32:13.196Z,78.63
2022-11-26T03:34:41.286Z,78.68
2022-11-26T03:37:09.676Z,78.93
2022-11-26T03:39:37.708Z,79.20
2022-11-26T03:42:05.668Z,79.42
2022-11-26T03:44:33.517Z,79.60
2022-11-26T03:47:01.912Z,79.76
2022-11-26T03:49:29.782Z,79.92
2022-11-26T03:51:57.728Z,80.08
2022-11-26T03:54:25.748Z,80.31
2022-11-26T03:56:53.552Z,80.67
2022-11-26T03:59:21.374Z,80.74
2022-11-26T04:01:49.331Z,80.94
2022-11-26T04:04:17.348Z,81.11
2022-11-26T04:06:45.158Z,80.94
2022-11-26T04:09:12.972Z,80.94
2022-11-26T04:11:40.915Z,80.74
2022-11-26T04:14:08.712Z,80.59
2022-11-26T04:16:36.668Z,80.40
2022-11-26T04:19:04.538Z,80.47
2022-11-26T04:21:32.303Z,80.37
2022-11-26T04:24:00.171Z,80.35
2022-11-26T04:26:28.193Z,80.39
2022-11-26T04:28:56.131Z,80.30
2022-11-26T04:31:24.071Z,80.05
2022-11-26T04:33:52.324Z,80.04
2022-11-26T04:36:20.155Z,80.18
2022-11-26T04:38:48.021Z,79.91
2022-11-26T04:41:15.873Z,80.05
2022-11-26T04:43:43.650Z,80.06
2022-11-26T04:46:11.535Z,80.06
2022-11-26T04:48:39.394Z,79.96
2022-11-26T04:51:07.518Z,79.84
2022-11-26T04:53:35.436Z,79.95
2022-11-26T04:56:03.386Z,80.11
2022-11-26T04:58:31.266Z,80.09
2022-11-26T05:00:59.112Z,79.68
2022-11-26T05:03:27.133Z,79.43
2022-11-26T05:05:55.071Z,79.38
2022-11-26T05:08:22.895Z,79.28
2022-11-26T05:10:55.431Z,79.08
2022-11-26T05:13:23.470Z,78.90
2022-11-26T05:15:51.291Z,79.10
2022-11-26T05:18:19.314Z,79.06
2022-11-26T05:20:47.998Z,79.14
2022-11-26T05:23:15.803Z,79.07
2022-11-26T05:25:43.565Z,78.92
2022-11-26T05:28:11.507Z,78.95
2022-11-26T05:30:39.460Z,79.30
2022-11-26T05:33:07.414Z,79.72
2022-11-26T05:35:35.255Z,79.46
2022-11-26T05:38:03.106Z,79.38
2022-11-26T05:40:31.038Z,79.60
2022-11-26T05:42:58.782Z,79.48
2022-11-26T05:45:26.746Z,79.33
2022-11-26T05:47:54.587Z,79.26
2022-11-26T05:50:22.476Z,79.45
2022-11-26T05:52:50.475Z,79.14
2022-11-26T05:55:19.046Z,78.85
2022-11-26T05:57:46.918Z,78.92
2022-11-26T06:00:15.511Z,79.05
2022-11-26T06:02:43.552Z,79.26
2022-11-26T06:05:11.982Z,79.08
2022-11-26T06:07:44.631Z,79.15
2022-11-26T06:10:14.379Z,79.18
2022-11-26T06:12:42.279Z,79.30
2022-11-26T06:15:10.383Z,79.40
2022-11-26T06:17:38.246Z,79.39
2022-11-26T06:20:07.135Z,79.29
2022-11-26T06:22:38.318Z,79.19
2022-11-26T06:25:09.264Z,79.16
2022-11-26T06:27:37.948Z,79.47
2022-11-26T06:30:08.176Z,80.12
2022-11-26T06:32:36.003Z,80.03
2022-11-26T06:35:04.801Z,80.28
2022-11-26T06:37:33.536Z,80.03
2022-11-26T06:40:01.719Z,79.70
2022-11-26T06:42:29.877Z,79.65
2022-11-26T06:44:59.987Z,79.49
2022-11-26T06:47:28.190Z,79.72
2022-11-26T06:49:56.047Z,79.73
2022-11-26T06:52:23.889Z,80.28
2022-11-26T06:54:51.696Z,80.33
2022-11-26T06:57:19.633Z,79.99
2022-11-26T06:59:47.610Z,80.14
2022-11-26T07:02:15.752Z,80.22
2022-11-26T07:04:43.737Z,80.33
2022-11-26T07:07:11.579Z,80.35
2022-11-26T07:09:40.328Z,80.24
2022-11-26T07:12:08.270Z,80.05
2022-11-26T07:14:36.292Z,80.10
2022-11-26T07:17:04.334Z,79.79
2022-11-26T07:19:32.118Z,79.74
2022-11-26T07:21:59.943Z,79.68
2022-11-26T07:24:27.983Z,79.69
2022-11-26T07:26:56.423Z,79.55
2022-11-26T07:29:24.255Z,79.48
2022-11-26T07:31:52.346Z,79.42
2022-11-26T07:34:20.154Z,78.90
2022-11-26T07:36:47.962Z,78.74
2022-11-26T07:39:15.989Z,78.60
2022-11-26T07:41:43.777Z,78.62
2022-11-26T07:44:13.776Z,78.32
2022-11-26T07:46:41.758Z,78.17
2022-11-26T07:49:09.760Z,78.23
2022-11-26T07:51:37.620Z,78.11
2022-11-26T07:54:07.984Z,78.11
2022-11-26T07:56:36.488Z,78.26
2022-11-26T07:59:04.852Z,78.20
2022-11-26T08:01:33.143Z,77.91
2022-11-26T08:04:05.577Z,77.76
2022-11-26T08:06:34.077Z,78.03
2022-11-26T08:09:03.443Z,78.09
2022-11-26T08:11:33.453Z,78.17
2022-11-26T08:14:04.838Z,77.98
2022-11-26T08:16:33.700Z,77.64
2022-11-26T08:19:10.971Z,77.58
2022-11-26T08:21:39.850Z,77.41
2022-11-26T08:24:12.494Z,77.09
2022-11-26T08:26:44.150Z,77.42
2022-11-26T08:29:14.651Z,77.75
2022-11-26T08:31:46.201Z,77.95
2022-11-26T08:34:16.438Z,78.12
2022-11-26T08:36:45.971Z,78.06
2022-11-26T08:39:17.541Z,77.87
2022-11-26T08:41:51.608Z,78.11
2022-11-26T08:44:20.653Z,77.89
2022-11-26T08:46:48.816Z,77.73
2022-11-26T08:49:17.161Z,77.53
2022-11-26T08:51:45.660Z,77.34
2022-11-26T08:54:13.708Z,77.38
2022-11-26T08:56:41.599Z,77.36
2022-11-26T08:59:09.456Z,77.22
2022-11-26T09:01:37.411Z,77.00
2022-11-26T09:04:05.764Z,76.71
2022-11-26T09:06:37.090Z,76.69
2022-11-26T09:09:15.891Z,76.92
2022-11-26T09:11:48.781Z,76.66
2022-11-26T09:14:19.479Z,76.63
2022-11-26T09:16:48.026Z,76.54
2022-11-26T09:19:17.709Z,76.59
2022-11-26T09:21:46.448Z,76.57
2022-11-26T09:24:14.412Z,76.26
2022-11-26T09:26:42.459Z,76.18
2022-11-26T09:29:15.187Z,76.20
2022-11-26T09:32:15.253Z,75.89
2022-11-26T09:34:34.370Z,75.98
2022-11-26T09:37:02.291Z,76.02
2022-11-26T09:39:30.308Z,76.30
2022-11-26T09:42:06.983Z,76.11
2022-11-26T09:44:46.323Z,76.17
2022-11-26T09:47:20.483Z,76.03
2022-11-26T09:50:03.476Z,76.15
2022-11-26T09:52:38.326Z,76.27
2022-11-26T09:55:20.131Z,76.16
2022-11-26T09:58:30.760Z,75.92
2022-11-26T10:01:00.841Z,75.67
2022-11-26T10:03:35.232Z,76.02
2022-11-26T10:06:21.193Z,75.94
2022-11-26T10:09:11.105Z,75.62
2022-11-26T10:11:57.861Z,75.62
2022-11-26T10:14:42.252Z,75.49
2022-11-26T10:17:29.749Z,75.41
2022-11-26T10:20:35.403Z,75.47
2022-11-26T10:23:12.641Z,75.61
2022-11-26T10:25:46.349Z,75.60
2022-11-26T10:28:46.461Z,75.43
2022-11-26T10:31:24.192Z,75.37
2022-11-26T10:34:05.693Z,75.01
2022-11-26T10:36:44.390Z,74.87
2022-11-26T10:39:20.575Z,74.46
2022-11-26T10:41:48.656Z,74.47
2022-11-26T10:44:31.507Z,74.88
2022-11-26T10:47:17.841Z,74.87
2022-11-26T10:49:45.904Z,74.80
2022-11-26T10:52:17.694Z,74.78
2022-11-26T10:54:45.818Z,74.86
2022-11-26T10:57:19.083Z,74.81
2022-11-26T10:59:53.048Z,74.45
2022-11-26T11:02:32.555Z,74.02
2022-11-26T11:05:08.149Z,73.70
2022-11-26T11:07:39.980Z,73.51
2022-11-26T11:10:10.952Z,73.50
2022-11-26T11:12:40.715Z,73.28
2022-11-26T11:15:18.069Z,72.61
2022-11-26T11:17:54.372Z,72.22
2022-11-26T11:20:37.706Z,72.50
2022-11-26T11:23:11.485Z,72.30
2022-11-26T11:25:42.761Z,72.43
2022-11-26T11:28:20.295Z,72.29
2022-11-26T11:31:03.664Z,72.17
2022-11-26T11:33:32.170Z,72.33
2022-11-26T11:36:14.188Z,71.90
2022-11-26T11:38:47.733Z,71.89
2022-11-26T11:41:39.286Z,71.81
2022-11-26T11:44:10.401Z,72.00
2022-11-26T11:46:44.321Z,72.14
2022-11-26T11:49:30.895Z,72.00
2022-11-26T11:52:19.881Z,71.97
2022-11-26T11:54:56.576Z,72.32
2022-11-26T11:57:38.221Z,71.94
2022-11-26T12:00:34.968Z,71.87
2022-11-26T12:03:21.893Z,71.89
2022-11-26T12:06:13.967Z,71.77
2022-11-26T12:09:29.687Z,71.61
2022-11-26T12:12:08.767Z,71.50
2022-11-26T12:14:42.554Z,71.70
2022-11-26T12:17:19.849Z,71.90
2022-11-26T12:20:03.422Z,71.72
2022-11-26T12:22:49.318Z,71.57
2022-11-26T12:25:37.134Z,71.41
2022-11-26T12:28:21.310Z,71.24
2022-11-26T12:30:58.415Z,71.61
2022-11-26T12:34:15.428Z,71.25
2022-11-26T12:36:51.274Z,71.08
2022-11-26T12:39:47.978Z,70.84
2022-11-26T12:42:28.402Z,70.98
2022-11-26T12:45:21.602Z,71.09
2022-11-26T12:47:59.393Z,71.50
2022-11-26T12:50:46.423Z,71.45
2022-11-26T12:53:25.360Z,71.15
2022-11-26T12:56:12.041Z,71.17
2022-11-26T12:59:00.872Z,71.47
2022-11-26T13:01:29.613Z,71.52
2022-11-26T13:04:21.477Z,71.53
2022-11-26T13:07:03.855Z,71.51
2022-11-26T13:09:44.121Z,71.68
2022-11-26T13:12:37.007Z,71.65
2022-11-26T13:15:23.042Z,71.43
2022-11-26T13:17:51.894Z,71.87
2022-11-26T13:20:43.903Z,71.75
2022-11-26T13:23:30.037Z,71.86
2022-11-26T13:26:09.895Z,71.70
2022-11-26T13:28:47.032Z,71.75
2022-11-26T13:31:56.157Z,71.78
2022-11-26T13:34:36.991Z,71.94
2022-11-26T13:37:22.748Z,72.23
2022-11-26T13:40:03.592Z,72.16
2022-11-26T13:42:53.295Z,72.18
2022-11-26T13:45:39.788Z,72.00
2022-11-26T13:48:16.418Z,71.99
2022-11-26T13:50:50.299Z,72.12
2022-11-26T13:53:26.923Z,72.46
2022-11-26T13:56:00.785Z,72.41
2022-11-26T13:58:47.622Z,72.56
2022-11-26T14:01:37.171Z,72.72
2022-11-26T14:04:08.467Z,72.87
2022-11-26T14:06:37.477Z,72.75
2022-11-26T14:09:06.051Z,72.75
2022-11-26T14:11:46.478Z,72.61
2022-11-26T14:14:26.455Z,72.75
2022-11-26T14:17:00.507Z,72.83
2022-11-26T14:19:40.822Z,73.20
2022-11-26T14:22:11.779Z,73.67
2022-11-26T14:25:01.409Z,73.93
2022-11-26T14:27:57.292Z,73.65
2022-11-26T14:30:27.288Z,73.65
2022-11-26T14:32:59.343Z,73.51
2022-11-26T14:35:33.879Z,73.53
2022-11-26T14:38:06.045Z,74.20
2022-11-26T14:40:38.704Z,74.35
2022-11-26T14:43:16.242Z,74.17
2022-11-26T14:45:47.405Z,74.09
2022-11-26T14:48:25.167Z,74.32
2022-11-26T14:50:54.911Z,74.15
2022-11-26T14:53:25.407Z,74.20
2022-11-26T14:55:54.056Z,74.27
2022-11-26T14:58:36.364Z,74.33
2022-11-26T15:01:06.510Z,74.26
2022-11-26T15:03:35.394Z,74.33
2022-11-26T15:06:03.265Z,74.26
2022-11-26T15:08:31.164Z,74.41
2022-11-26T15:11:05.981Z,73.85
2022-11-26T15:13:44.412Z,73.85
2022-11-26T15:16:36.291Z,74.62
2022-11-26T15:19:06.484Z,74.96
2022-11-26T15:21:34.883Z,74.71
2022-11-26T15:24:07.955Z,75.24
2022-11-26T15:26:36.907Z,75.48
2022-11-26T15:29:29.280Z,75.63
2022-11-26T15:31:57.336Z,75.55
2022-11-26T15:34:26.941Z,75.21
2022-11-26T15:36:54.922Z,75.24
2022-11-26T15:39:29.225Z,75.49
2022-11-26T15:42:30.589Z,75.62
2022-11-26T15:44:58.947Z,75.72
2022-11-26T15:47:29.025Z,75.52
2022-11-26T15:50:00.157Z,75.61
2022-11-26T15:52:32.988Z,75.77
2022-11-26T15:55:12.979Z,75.87
2022-11-26T15:57:42.217Z,75.68
2022-11-26T16:00:31.737Z,75.66
2022-11-26T16:02:59.701Z,75.95
2022-11-26T16:05:38.916Z,76.23
2022-11-26T16:08:28.196Z,76.12
2022-11-26T16:11:21.023Z,76.02
2022-11-26T16:13:48.947Z,76.41
2022-11-26T16:16:19.806Z,76.33
2022-11-26T16:18:51.542Z,76.12
2022-11-26T16:21:27.692Z,76.41
2022-11-26T16:24:06.024Z,76.61
2022-11-26T16:27:18.434Z,76.92
2022-11-26T16:29:47.358Z,76.89
2022-11-26T16:32:17.368Z,76.74
2022-11-26T16:34:45.282Z,76.57
2022-11-26T16:37:42.590Z,76.92
2022-11-26T16:40:14.839Z,77.07
2022-11-26T16:42:42.826Z,76.98
2022-11-26T16:45:13.232Z,76.91
2022-11-26T16:47:44.015Z,76.76
2022-11-26T16:50:25.047Z,76.62
2022-11-26T16:52:54.100Z,76.53
2022-11-26T16:55:26.590Z,76.65
2022-11-26T16:57:57.592Z,76.57
2022-11-26T17:00:26.262Z,76.68
2022-11-26T17:02:54.391Z,76.96
2022-11-26T17:05:23.095Z,76.89
2022-11-26T17:07:56.313Z,76.90
2022-11-26T17:10:29.400Z,77.23
2022-11-26T17:12:57.545Z,77.16
2022-11-26T17:15:25.504Z,77.06
2022-11-26T17:18:02.903Z,77.04
2022-11-26T17:20:30.897Z,76.97
2022-11-26T17:22:58.822Z,76.93
2022-11-26T17:25:26.593Z,77.02
2022-11-26T17:27:54.546Z,77.02
2022-11-26T17:30:24.459Z,76.82
2022-11-26T17:32:52.888Z,76.95
2022-11-26T17:35:20.737Z,76.78
2022-11-26T17:37:48.681Z,76.64
2022-11-26T17:40:22.746Z,76.65
2022-11-26T17:42:51.245Z,77.08
2022-11-26T17:45:19.612Z,77.38
2022-11-26T17:47:48.376Z,76.97
2022-11-26T17:50:25.193Z,76.87
2022-11-26T17:52:53.250Z,77.18
2022-11-26T17:55:26.530Z,77.37
2022-11-26T17:57:55.435Z,77.21
2022-11-26T18:00:28.190Z,77.39
2022-11-26T18:02:56.673Z,77.70
2022-11-26T18:05:25.010Z,77.69
2022-11-26T18:07:53.060Z,77.81
2022-11-26T18:10:22.558Z,77.90
2022-11-26T18:12:53.854Z,77.53
2022-11-26T18:15:24.377Z,77.38
2022-11-26T18:17:54.488Z,77.83
2022-11-26T18:20:27.772Z,77.88
2022-11-26T18:22:58.498Z,77.66
2022-11-26T18:25:27.995Z,77.60
2022-11-26T18:27:56.671Z,77.31
2022-11-26T18:30:24.874Z,77.18
2022-11-26T18:32:52.901Z,77.43
2022-11-26T18:35:22.854Z,77.92
2022-11-26T18:37:51.220Z,78.00
2022-11-26T18:40:19.398Z,77.75
2022-11-26T18:42:52.374Z,77.80
2022-11-26T18:45:20.220Z,78.32
2022-11-26T18:47:48.042Z,78.37
2022-11-26T18:50:15.984Z,78.37
2022-11-26T18:52:43.983Z,78.52
2022-11-26T18:55:14.775Z,78.66
2022-11-26T18:57:42.669Z,78.61
2022-11-26T19:00:11.184Z,78.47
2022-11-26T19:02:39.121Z,78.30
2022-11-26T19:05:08.169Z,78.53
2022-11-26T19:07:37.231Z,78.75
2022-11-26T19:10:05.696Z,78.65
2022-11-26T19:12:33.534Z,78.46
2022-11-26T19:15:01.379Z,78.38
2022-11-26T19:17:29.247Z,78.52
2022-11-26T19:19:57.148Z,78.47
2022-11-26T19:22:24.990Z,78.38
2022-11-26T19:24:52.818Z,78.61
2022-11-26T19:27:20.721Z,78.81
2022-11-26T19:29:48.726Z,78.45
2022-11-26T19:32:16.710Z,78.48
2022-11-26T19:34:44.581Z,78.89
2022-11-26T19:37:12.403Z,79.00
2022-11-26T19:39:40.609Z,79.35
2022-11-26T19:42:08.972Z,79.35
2022-11-26T19:44:37.030Z,79.17
2022-11-26T19:47:05.003Z,79.07
2022-11-26T19:49:33.027Z,78.82
2022-11-26T19:52:00.892Z,78.87
2022-11-26T19:54:28.801Z,78.97
2022-11-26T19:56:56.636Z,78.94
2022-11-26T19:59:24.462Z,79.09
2022-11-26T20:01:52.406Z,79.00
2022-11-26T20:04:20.242Z,79.04
2022-11-26T20:06:48.083Z,79.23
2022-11-26T20:09:16.478Z,79.09
2022-11-26T20:11:44.733Z,78.97
2022-11-26T20:14:14.405Z,79.38
2022-11-26T20:16:44.041Z,79.42
2022-11-26T20:19:12.681Z,79.12
2022-11-26T20:21:40.844Z,79.46
2022-11-26T20:24:13.140Z,79.35
2022-11-26T20:26:42.940Z,79.32
2022-11-26T20:29:14.275Z,79.55
2022-11-26T20:31:45.851Z,79.82
2022-11-26T20:34:19.625Z,79.77
2022-11-26T20:36:47.670Z,79.48
2022-11-26T20:39:18.198Z,79.52
2022-11-26T20:41:46.728Z,79.60
2022-11-26T20:44:14.872Z,79.44
2022-11-26T20:46:43.122Z,79.66
2022-11-26T20:49:11.760Z,79.73
2022-11-26T20:51:39.874Z,79.62
2022-11-26T20:54:07.854Z,79.93
2022-11-26T20:56:35.724Z,80.02
2022-11-26T20:59:03.800Z,79.84
2022-11-26T21:01:32.198Z,79.90
2022-11-26T21:04:00.105Z,80.08
2022-11-26T21:06:30.307Z,80.12
2022-11-26T21:09:04.395Z,80.03
2022-11-26T21:11:32.299Z,79.81
2022-11-26T21:14:01.666Z,79.91
2022-11-26T21:16:30.927Z,79.99
2022-11-26T21:18:59.957Z,80.22
2022-11-26T21:21:28.820Z,80.41
2022-11-26T21:23:57.934Z,80.36
2022-11-26T21:26:26.710Z,80.28
2022-11-26T21:28:57.343Z,80.14
2022-11-26T21:31:27.348Z,80.32
2022-11-26T21:34:00.964Z,80.52
2022-11-26T21:36:32.125Z,80.12
2022-11-26T21:39:00.527Z,80.12
2022-11-26T21:41:28.595Z,80.22
2022-11-26T21:43:56.682Z,80.48
2022-11-26T21:46:26.670Z,80.55
2022-11-26T21:48:55.802Z,80.43
2022-11-26T21:51:26.368Z,80.39
2022-11-26T21:53:55.542Z,80.51
2022-11-26T21:56:28.824Z,80.57
2022-11-26T21:58:58.536Z,80.21
2022-11-26T22:01:29.053Z,80.17
2022-11-26T22:04:00.107Z,80.36
2022-11-26T22:06:28.221Z,80.34
2022-11-26T22:08:56.321Z,80.47
2022-11-26T22:11:36.343Z,80.50
2022-11-26T22:14:05.294Z,80.29
2022-11-26T22:16:34.854Z,80.53
2022-11-26T22:19:03.020Z,80.26
2022-11-26T22:21:34.217Z,80.23
2022-11-26T22:24:03.628Z,80.27
2022-11-26T22:26:32.906Z,80.20
2022-11-26T22:29:01.471Z,80.17
2022-11-26T22:31:32.388Z,80.43
2022-11-26T22:34:04.927Z,80.61
2022-11-26T22:36:33.926Z,80.43
2022-11-26T22:39:03.664Z,80.58
2022-11-26T22:41:32.877Z,80.35
2022-11-26T22:44:01.714Z,80.15
2022-11-26T22:46:29.712Z,80.27
2022-11-26T22:48:59.354Z,80.40
2022-11-26T22:51:29.713Z,80.32
2022-11-26T22:54:00.334Z,80.40
2022-11-26T22:56:29.199Z,80.16
2022-11-26T22:58:57.083Z,80.38
2022-11-26T23:01:27.919Z,80.49
2022-11-26T23:03:57.580Z,80.23
2022-11-26T23:06:28.464Z,80.05
2022-11-26T23:08:58.539Z,80.31
2022-11-26T23:11:29.418Z,80.27
2022-11-26T23:13:57.873Z,80.31
2022-11-26T23:16:27.081Z,80.43
2022-11-26T23:18:56.850Z,80.39
2022-11-26T23:21:30.355Z,80.20
2022-11-26T23:23:58.503Z,80.24
2022-11-26T23:26:29.244Z,80.69
2022-11-26T23:28:58.512Z,80.85
2022-11-26T23:31:30.147Z,80.67
2022-11-26T23:33:58.900Z,80.68
2022-11-26T23:36:27.650Z,80.29
2022-11-26T23:38:56.884Z,80.50
2022-11-26T23:41:24.983Z,80.66
2022-11-26T23:43:52.866Z,80.84
2022-11-26T23:46:22.117Z,80.93
2022-11-26T23:48:50.226Z,80.86
2022-11-26T23:51:24.261Z,80.97
2022-11-26T23:53:52.910Z,81.09
2022-11-26T23:56:27.271Z,81.00
2022-11-26T23:58:58.297Z,80.97
